sensor_id;sensor_type;location;lat;lon;timestamp;temperature;humidity
22734;DHT22;11534;51.994;5.692;2023-07-20T00:01:41;17.60;99.90
22734;DHT22;11534;51.994;5.692;2023-07-20T00:04:11;17.60;99.90
22734;DHT22;11534;51.994;5.692;2023-07-20T00:06:36;17.60;99.90
22734;DHT22;11534;51.994;5.692;2023-07-20T00:09:06;17.60;99.90
22734;DHT22;11534;51.994;5.692;2023-07-20T00:11:36;17.50;99.90
22734;DHT22;11534;51.994;5.692;2023-07-20T00:14:02;17.50;99.90
22734;DHT22;11534;51.994;5.692;2023-07-20T00:16:27;17.50;99.90
22734;DHT22;11534;51.994;5.692;2023-07-20T00:18:53;17.50;99.90
22734;DHT22;11534;51.994;5.692;2023-07-20T00:21:19;17.40;99.90
22734;DHT22;11534;51.994;5.692;2023-07-20T00:23:45;17.50;99.90
22734;DHT22;11534;51.994;5.692;2023-07-20T00:26:10;17.50;99.90
22734;DHT22;11534;51.994;5.692;2023-07-20T00:28:36;17.40;99.90
22734;DHT22;11534;51.994;5.692;2023-07-20T00:31:02;17.40;99.90
22734;DHT22;11534;51.994;5.692;2023-07-20T00:33:28;17.40;99.90
22734;DHT22;11534;51.994;5.692;2023-07-20T00:35:54;17.40;99.90
22734;DHT22;11534;51.994;5.692;2023-07-20T00:38:19;17.30;99.90
22734;DHT22;11534;51.994;5.692;2023-07-20T00:40:46;17.30;99.90
22734;DHT22;11534;51.994;5.692;2023-07-20T00:43:12;17.30;99.90
22734;DHT22;11534;51.994;5.692;2023-07-20T00:45:38;17.20;99.90
22734;DHT22;11534;51.994;5.692;2023-07-20T00:48:04;17.20;99.90
22734;DHT22;11534;51.994;5.692;2023-07-20T00:50:32;17.20;99.90
22734;DHT22;11534;51.994;5.692;2023-07-20T00:52:58;17.20;99.90
22734;DHT22;11534;51.994;5.692;2023-07-20T00:55:24;17.20;99.90
22734;DHT22;11534;51.994;5.692;2023-07-20T00:57:51;17.10;99.90
22734;DHT22;11534;51.994;5.692;2023-07-20T01:00:17;17.10;99.90
22734;DHT22;11534;51.994;5.692;2023-07-20T01:02:43;17.10;99.90
22734;DHT22;11534;51.994;5.692;2023-07-20T01:05:09;17.00;99.90
22734;DHT22;11534;51.994;5.692;2023-07-20T01:07:53;17.00;99.90
22734;DHT22;11534;51.994;5.692;2023-07-20T01:10:39;17.00;99.90
22734;DHT22;11534;51.994;5.692;2023-07-20T01:13:07;17.00;99.90
22734;DHT22;11534;51.994;5.692;2023-07-20T01:15:35;17.00;99.90
22734;DHT22;11534;51.994;5.692;2023-07-20T01:18:00;17.00;99.90
22734;DHT22;11534;51.994;5.692;2023-07-20T01:20:31;17.00;99.90
22734;DHT22;11534;51.994;5.692;2023-07-20T01:23:07;17.00;99.90
22734;DHT22;11534;51.994;5.692;2023-07-20T01:26:21;16.90;99.90
22734;DHT22;11534;51.994;5.692;2023-07-20T01:29:33;16.90;99.90
22734;DHT22;11534;51.994;5.692;2023-07-20T01:31:54;16.80;99.90
22734;DHT22;11534;51.994;5.692;2023-07-20T01:34:23;16.80;99.90
22734;DHT22;11534;51.994;5.692;2023-07-20T01:36:50;16.70;99.90
22734;DHT22;11534;51.994;5.692;2023-07-20T01:39:19;16.70;99.90
22734;DHT22;11534;51.994;5.692;2023-07-20T01:41:45;16.70;99.90
22734;DHT22;11534;51.994;5.692;2023-07-20T01:44:12;16.70;99.90
22734;DHT22;11534;51.994;5.692;2023-07-20T01:46:37;16.70;99.90
22734;DHT22;11534;51.994;5.692;2023-07-20T01:49:03;16.60;99.90
22734;DHT22;11534;51.994;5.692;2023-07-20T01:51:29;16.60;99.90
22734;DHT22;11534;51.994;5.692;2023-07-20T01:53:54;16.60;99.90
22734;DHT22;11534;51.994;5.692;2023-07-20T01:56:20;16.70;99.90
22734;DHT22;11534;51.994;5.692;2023-07-20T01:58:46;16.60;99.90
22734;DHT22;11534;51.994;5.692;2023-07-20T02:01:11;16.60;99.90
22734;DHT22;11534;51.994;5.692;2023-07-20T02:03:37;16.60;99.90
22734;DHT22;11534;51.994;5.692;2023-07-20T02:06:03;16.50;99.90
22734;DHT22;11534;51.994;5.692;2023-07-20T02:08:28;16.50;99.90
22734;DHT22;11534;51.994;5.692;2023-07-20T02:10:54;16.50;99.90
22734;DHT22;11534;51.994;5.692;2023-07-20T02:13:19;16.50;99.90
22734;DHT22;11534;51.994;5.692;2023-07-20T02:15:45;16.40;99.90
22734;DHT22;11534;51.994;5.692;2023-07-20T02:18:12;16.30;99.90
22734;DHT22;11534;51.994;5.692;2023-07-20T02:20:38;16.40;99.90
22734;DHT22;11534;51.994;5.692;2023-07-20T02:23:05;16.30;99.90
22734;DHT22;11534;51.994;5.692;2023-07-20T02:25:31;16.30;99.90
22734;DHT22;11534;51.994;5.692;2023-07-20T02:27:57;16.30;99.90
22734;DHT22;11534;51.994;5.692;2023-07-20T02:30:23;16.30;99.90
22734;DHT22;11534;51.994;5.692;2023-07-20T02:32:49;16.30;99.90
22734;DHT22;11534;51.994;5.692;2023-07-20T02:35:15;16.20;99.90
22734;DHT22;11534;51.994;5.692;2023-07-20T02:37:41;16.20;99.90
22734;DHT22;11534;51.994;5.692;2023-07-20T02:40:07;16.20;99.90
22734;DHT22;11534;51.994;5.692;2023-07-20T02:42:33;16.10;99.90
22734;DHT22;11534;51.994;5.692;2023-07-20T02:44:58;16.10;99.90
22734;DHT22;11534;51.994;5.692;2023-07-20T02:47:24;16.10;99.90
22734;DHT22;11534;51.994;5.692;2023-07-20T02:49:50;16.00;99.90
22734;DHT22;11534;51.994;5.692;2023-07-20T02:52:16;16.00;99.90
22734;DHT22;11534;51.994;5.692;2023-07-20T02:54:41;16.00;99.90
22734;DHT22;11534;51.994;5.692;2023-07-20T02:57:07;16.00;99.90
22734;DHT22;11534;51.994;5.692;2023-07-20T02:59:33;16.00;99.90
22734;DHT22;11534;51.994;5.692;2023-07-20T03:01:59;15.90;99.90
22734;DHT22;11534;51.994;5.692;2023-07-20T03:04:27;15.90;99.90
22734;DHT22;11534;51.994;5.692;2023-07-20T03:06:53;15.90;99.90
22734;DHT22;11534;51.994;5.692;2023-07-20T03:09:19;15.90;99.90
22734;DHT22;11534;51.994;5.692;2023-07-20T03:11:44;15.80;99.90
22734;DHT22;11534;51.994;5.692;2023-07-20T03:14:10;15.80;99.90
22734;DHT22;11534;51.994;5.692;2023-07-20T03:16:36;15.70;99.90
22734;DHT22;11534;51.994;5.692;2023-07-20T03:19:02;15.70;99.90
22734;DHT22;11534;51.994;5.692;2023-07-20T03:21:27;15.70;99.90
22734;DHT22;11534;51.994;5.692;2023-07-20T03:23:54;15.70;99.90
22734;DHT22;11534;51.994;5.692;2023-07-20T03:26:20;15.70;99.90
22734;DHT22;11534;51.994;5.692;2023-07-20T03:28:46;15.60;99.90
22734;DHT22;11534;51.994;5.692;2023-07-20T03:31:11;15.60;99.90
22734;DHT22;11534;51.994;5.692;2023-07-20T03:33:37;15.60;99.90
22734;DHT22;11534;51.994;5.692;2023-07-20T03:36:03;15.60;99.90
22734;DHT22;11534;51.994;5.692;2023-07-20T03:38:28;15.60;99.90
22734;DHT22;11534;51.994;5.692;2023-07-20T03:40:59;15.60;99.90
22734;DHT22;11534;51.994;5.692;2023-07-20T03:43:27;15.50;99.90
22734;DHT22;11534;51.994;5.692;2023-07-20T03:45:53;15.50;99.90
22734;DHT22;11534;51.994;5.692;2023-07-20T03:48:21;15.40;99.90
22734;DHT22;11534;51.994;5.692;2023-07-20T03:50:50;15.40;99.90
22734;DHT22;11534;51.994;5.692;2023-07-20T03:53:16;15.30;99.90
22734;DHT22;11534;51.994;5.692;2023-07-20T03:55:46;15.30;99.90
22734;DHT22;11534;51.994;5.692;2023-07-20T03:58:12;15.30;99.90
22734;DHT22;11534;51.994;5.692;2023-07-20T04:00:39;15.30;99.90
22734;DHT22;11534;51.994;5.692;2023-07-20T04:03:05;15.30;99.90
22734;DHT22;11534;51.994;5.692;2023-07-20T04:05:31;15.30;99.90
22734;DHT22;11534;51.994;5.692;2023-07-20T04:07:56;15.30;99.90
22734;DHT22;11534;51.994;5.692;2023-07-20T04:10:22;15.30;99.90
22734;DHT22;11534;51.994;5.692;2023-07-20T04:12:48;15.30;99.90
22734;DHT22;11534;51.994;5.692;2023-07-20T04:15:14;15.30;99.90
22734;DHT22;11534;51.994;5.692;2023-07-20T04:17:40;15.30;99.90
22734;DHT22;11534;51.994;5.692;2023-07-20T04:20:07;15.30;99.90
22734;DHT22;11534;51.994;5.692;2023-07-20T04:22:33;15.40;99.90
22734;DHT22;11534;51.994;5.692;2023-07-20T04:24:58;15.40;99.90
22734;DHT22;11534;51.994;5.692;2023-07-20T04:27:24;15.40;99.90
22734;DHT22;11534;51.994;5.692;2023-07-20T04:29:49;15.40;99.90
22734;DHT22;11534;51.994;5.692;2023-07-20T04:32:15;15.40;99.90
22734;DHT22;11534;51.994;5.692;2023-07-20T04:34:42;15.40;99.90
22734;DHT22;11534;51.994;5.692;2023-07-20T04:37:08;15.40;99.90
22734;DHT22;11534;51.994;5.692;2023-07-20T04:39:33;15.40;99.90
22734;DHT22;11534;51.994;5.692;2023-07-20T04:41:59;15.50;99.90
22734;DHT22;11534;51.994;5.692;2023-07-20T04:44:25;15.50;99.90
22734;DHT22;11534;51.994;5.692;2023-07-20T04:46:50;15.50;99.90
22734;DHT22;11534;51.994;5.692;2023-07-20T04:49:16;15.60;99.90
22734;DHT22;11534;51.994;5.692;2023-07-20T04:51:41;15.60;99.90
22734;DHT22;11534;51.994;5.692;2023-07-20T04:54:07;15.60;99.90
22734;DHT22;11534;51.994;5.692;2023-07-20T04:56:33;15.70;99.90
22734;DHT22;11534;51.994;5.692;2023-07-20T04:58:59;15.70;99.90
22734;DHT22;11534;51.994;5.692;2023-07-20T05:01:25;15.80;99.90
22734;DHT22;11534;51.994;5.692;2023-07-20T05:03:52;15.80;99.90
22734;DHT22;11534;51.994;5.692;2023-07-20T05:06:17;15.80;99.90
22734;DHT22;11534;51.994;5.692;2023-07-20T05:08:43;15.90;99.90
22734;DHT22;11534;51.994;5.692;2023-07-20T05:11:09;15.90;99.90
22734;DHT22;11534;51.994;5.692;2023-07-20T05:13:36;16.00;99.90
22734;DHT22;11534;51.994;5.692;2023-07-20T05:16:01;16.00;99.90
22734;DHT22;11534;51.994;5.692;2023-07-20T05:18:27;16.10;99.90
22734;DHT22;11534;51.994;5.692;2023-07-20T05:20:53;16.20;99.90
22734;DHT22;11534;51.994;5.692;2023-07-20T05:23:21;16.30;99.90
22734;DHT22;11534;51.994;5.692;2023-07-20T05:25:47;16.30;99.90
22734;DHT22;11534;51.994;5.692;2023-07-20T05:28:13;16.40;99.90
22734;DHT22;11534;51.994;5.692;2023-07-20T05:30:40;16.40;99.90
22734;DHT22;11534;51.994;5.692;2023-07-20T05:33:05;16.40;99.90
22734;DHT22;11534;51.994;5.692;2023-07-20T05:35:31;16.50;99.90
22734;DHT22;11534;51.994;5.692;2023-07-20T05:37:57;16.50;99.90
22734;DHT22;11534;51.994;5.692;2023-07-20T05:40:22;16.60;99.90
22734;DHT22;11534;51.994;5.692;2023-07-20T05:42:48;16.60;99.90
22734;DHT22;11534;51.994;5.692;2023-07-20T05:45:14;16.50;99.90
22734;DHT22;11534;51.994;5.692;2023-07-20T05:47:41;16.50;99.90
22734;DHT22;11534;51.994;5.692;2023-07-20T05:50:07;16.60;99.90
22734;DHT22;11534;51.994;5.692;2023-07-20T05:52:32;16.50;99.90
22734;DHT22;11534;51.994;5.692;2023-07-20T05:54:58;16.60;99.90
22734;DHT22;11534;51.994;5.692;2023-07-20T05:57:24;16.60;99.90
22734;DHT22;11534;51.994;5.692;2023-07-20T05:59:49;16.60;99.90
22734;DHT22;11534;51.994;5.692;2023-07-20T06:02:16;16.70;99.90
22734;DHT22;11534;51.994;5.692;2023-07-20T06:04:42;16.80;99.90
22734;DHT22;11534;51.994;5.692;2023-07-20T06:07:07;16.80;99.90
22734;DHT22;11534;51.994;5.692;2023-07-20T06:09:33;16.80;99.90
22734;DHT22;11534;51.994;5.692;2023-07-20T06:11:59;16.80;99.90
22734;DHT22;11534;51.994;5.692;2023-07-20T06:14:25;16.70;99.90
22734;DHT22;11534;51.994;5.692;2023-07-20T06:16:50;16.70;99.90
22734;DHT22;11534;51.994;5.692;2023-07-20T06:19:16;16.60;99.90
22734;DHT22;11534;51.994;5.692;2023-07-20T06:21:42;16.70;99.90
22734;DHT22;11534;51.994;5.692;2023-07-20T06:24:08;16.70;99.90
22734;DHT22;11534;51.994;5.692;2023-07-20T06:26:34;16.70;99.90
22734;DHT22;11534;51.994;5.692;2023-07-20T06:29:08;16.80;99.90
22734;DHT22;11534;51.994;5.692;2023-07-20T06:31:37;16.80;99.90
22734;DHT22;11534;51.994;5.692;2023-07-20T06:34:03;16.80;99.90
22734;DHT22;11534;51.994;5.692;2023-07-20T06:36:29;16.80;99.90
22734;DHT22;11534;51.994;5.692;2023-07-20T06:38:55;16.80;99.90
22734;DHT22;11534;51.994;5.692;2023-07-20T06:41:21;16.90;99.90
22734;DHT22;11534;51.994;5.692;2023-07-20T06:43:47;16.90;99.90
22734;DHT22;11534;51.994;5.692;2023-07-20T06:46:13;17.00;99.90
22734;DHT22;11534;51.994;5.692;2023-07-20T06:48:39;17.00;99.90
22734;DHT22;11534;51.994;5.692;2023-07-20T06:51:05;17.10;99.90
22734;DHT22;11534;51.994;5.692;2023-07-20T06:53:31;17.10;99.90
22734;DHT22;11534;51.994;5.692;2023-07-20T06:55:56;17.20;99.90
22734;DHT22;11534;51.994;5.692;2023-07-20T06:58:23;17.30;99.90
22734;DHT22;11534;51.994;5.692;2023-07-20T07:00:49;17.40;99.90
22734;DHT22;11534;51.994;5.692;2023-07-20T07:03:15;17.50;99.90
22734;DHT22;11534;51.994;5.692;2023-07-20T07:05:41;17.50;99.90
22734;DHT22;11534;51.994;5.692;2023-07-20T07:08:07;17.50;99.90
22734;DHT22;11534;51.994;5.692;2023-07-20T07:10:34;17.50;99.90
22734;DHT22;11534;51.994;5.692;2023-07-20T07:13:00;17.60;99.90
22734;DHT22;11534;51.994;5.692;2023-07-20T07:15:26;17.60;99.90
22734;DHT22;11534;51.994;5.692;2023-07-20T07:17:53;17.70;99.90
22734;DHT22;11534;51.994;5.692;2023-07-20T07:20:19;17.70;99.90
22734;DHT22;11534;51.994;5.692;2023-07-20T07:22:44;17.80;99.90
22734;DHT22;11534;51.994;5.692;2023-07-20T07:25:10;17.80;99.90
22734;DHT22;11534;51.994;5.692;2023-07-20T07:27:36;17.80;99.90
22734;DHT22;11534;51.994;5.692;2023-07-20T07:30:03;17.80;99.90
22734;DHT22;11534;51.994;5.692;2023-07-20T07:32:29;17.80;99.90
22734;DHT22;11534;51.994;5.692;2023-07-20T07:34:54;17.60;99.90
22734;DHT22;11534;51.994;5.692;2023-07-20T07:37:20;17.60;99.90
22734;DHT22;11534;51.994;5.692;2023-07-20T07:39:46;17.50;99.90
22734;DHT22;11534;51.994;5.692;2023-07-20T07:42:12;17.40;99.90
22734;DHT22;11534;51.994;5.692;2023-07-20T07:44:38;17.40;99.90
22734;DHT22;11534;51.994;5.692;2023-07-20T07:47:04;17.40;99.90
22734;DHT22;11534;51.994;5.692;2023-07-20T07:49:30;17.40;99.90
22734;DHT22;11534;51.994;5.692;2023-07-20T07:51:56;17.40;99.90
22734;DHT22;11534;51.994;5.692;2023-07-20T07:54:22;17.50;99.90
22734;DHT22;11534;51.994;5.692;2023-07-20T07:56:48;17.60;99.90
22734;DHT22;11534;51.994;5.692;2023-07-20T07:59:13;17.70;99.90
22734;DHT22;11534;51.994;5.692;2023-07-20T08:01:39;17.70;99.90
22734;DHT22;11534;51.994;5.692;2023-07-20T08:04:05;17.70;99.90
22734;DHT22;11534;51.994;5.692;2023-07-20T08:06:31;17.80;99.90
22734;DHT22;11534;51.994;5.692;2023-07-20T08:08:57;17.80;99.90
22734;DHT22;11534;51.994;5.692;2023-07-20T08:11:23;17.80;99.90
22734;DHT22;11534;51.994;5.692;2023-07-20T08:13:49;17.80;99.90
22734;DHT22;11534;51.994;5.692;2023-07-20T08:16:14;18.00;99.90
22734;DHT22;11534;51.994;5.692;2023-07-20T08:18:40;18.10;99.90
22734;DHT22;11534;51.994;5.692;2023-07-20T08:21:06;18.10;99.90
22734;DHT22;11534;51.994;5.692;2023-07-20T08:23:32;18.20;99.90
22734;DHT22;11534;51.994;5.692;2023-07-20T08:25:57;18.30;99.90
22734;DHT22;11534;51.994;5.692;2023-07-20T08:28:23;18.40;99.90
22734;DHT22;11534;51.994;5.692;2023-07-20T08:30:49;18.50;99.90
22734;DHT22;11534;51.994;5.692;2023-07-20T08:33:17;18.50;99.90
22734;DHT22;11534;51.994;5.692;2023-07-20T08:35:45;18.50;99.90
22734;DHT22;11534;51.994;5.692;2023-07-20T08:38:10;18.50;99.90
22734;DHT22;11534;51.994;5.692;2023-07-20T08:40:41;18.70;99.90
22734;DHT22;11534;51.994;5.692;2023-07-20T08:43:07;18.80;99.90
22734;DHT22;11534;51.994;5.692;2023-07-20T08:45:34;18.80;99.90
22734;DHT22;11534;51.994;5.692;2023-07-20T08:48:01;19.00;99.90
22734;DHT22;11534;51.994;5.692;2023-07-20T08:50:31;19.10;99.90
22734;DHT22;11534;51.994;5.692;2023-07-20T08:52:58;19.10;99.90
22734;DHT22;11534;51.994;5.692;2023-07-20T08:55:27;19.00;99.90
22734;DHT22;11534;51.994;5.692;2023-07-20T08:57:55;19.00;99.90
22734;DHT22;11534;51.994;5.692;2023-07-20T09:00:22;19.00;99.90
22734;DHT22;11534;51.994;5.692;2023-07-20T09:02:53;19.10;99.90
22734;DHT22;11534;51.994;5.692;2023-07-20T09:05:19;19.20;99.90
22734;DHT22;11534;51.994;5.692;2023-07-20T09:07:45;19.30;99.90
22734;DHT22;11534;51.994;5.692;2023-07-20T09:10:11;19.40;99.90
22734;DHT22;11534;51.994;5.692;2023-07-20T09:12:42;19.40;99.90
22734;DHT22;11534;51.994;5.692;2023-07-20T09:15:09;19.30;99.90
22734;DHT22;11534;51.994;5.692;2023-07-20T09:17:35;19.40;99.90
22734;DHT22;11534;51.994;5.692;2023-07-20T09:20:06;19.50;99.90
22734;DHT22;11534;51.994;5.692;2023-07-20T09:22:37;19.60;99.90
22734;DHT22;11534;51.994;5.692;2023-07-20T09:25:07;19.60;99.90
22734;DHT22;11534;51.994;5.692;2023-07-20T09:27:43;19.70;99.90
22734;DHT22;11534;51.994;5.692;2023-07-20T09:30:10;19.80;99.90
22734;DHT22;11534;51.994;5.692;2023-07-20T09:32:46;19.90;99.90
22734;DHT22;11534;51.994;5.692;2023-07-20T09:35:16;19.80;99.90
22734;DHT22;11534;51.994;5.692;2023-07-20T09:37:58;19.60;99.90
22734;DHT22;11534;51.994;5.692;2023-07-20T09:40:25;19.50;99.90
22734;DHT22;11534;51.994;5.692;2023-07-20T09:42:55;19.50;99.90
22734;DHT22;11534;51.994;5.692;2023-07-20T09:45:41;19.40;99.90
22734;DHT22;11534;51.994;5.692;2023-07-20T09:48:08;19.50;99.90
22734;DHT22;11534;51.994;5.692;2023-07-20T09:50:39;19.50;99.90
22734;DHT22;11534;51.994;5.692;2023-07-20T09:53:07;19.50;99.90
22734;DHT22;11534;51.994;5.692;2023-07-20T09:55:34;19.70;99.90
22734;DHT22;11534;51.994;5.692;2023-07-20T09:58:00;20.00;99.90
22734;DHT22;11534;51.994;5.692;2023-07-20T10:00:26;20.20;99.90
22734;DHT22;11534;51.994;5.692;2023-07-20T10:02:52;20.40;99.90
22734;DHT22;11534;51.994;5.692;2023-07-20T10:05:19;20.40;99.90
22734;DHT22;11534;51.994;5.692;2023-07-20T10:07:50;20.30;99.90
22734;DHT22;11534;51.994;5.692;2023-07-20T10:10:17;19.90;99.90
22734;DHT22;11534;51.994;5.692;2023-07-20T10:12:46;19.90;99.90
22734;DHT22;11534;51.994;5.692;2023-07-20T10:15:18;19.90;99.90
22734;DHT22;11534;51.994;5.692;2023-07-20T10:20:22;19.80;99.90
22734;DHT22;11534;51.994;5.692;2023-07-20T10:22:53;19.80;99.90
22734;DHT22;11534;51.994;5.692;2023-07-20T10:25:20;19.80;99.90
22734;DHT22;11534;51.994;5.692;2023-07-20T10:27:48;19.80;99.90
22734;DHT22;11534;51.994;5.692;2023-07-20T10:30:14;19.90;99.90
22734;DHT22;11534;51.994;5.692;2023-07-20T10:32:40;20.30;99.90
22734;DHT22;11534;51.994;5.692;2023-07-20T10:35:17;20.90;99.90
22734;DHT22;11534;51.994;5.692;2023-07-20T10:43:04;22.30;99.90
22734;DHT22;11534;51.994;5.692;2023-07-20T10:45:39;22.30;99.90
22734;DHT22;11534;51.994;5.692;2023-07-20T10:48:16;22.10;99.90
22734;DHT22;11534;51.994;5.692;2023-07-20T10:50:43;22.10;99.90
22734;DHT22;11534;51.994;5.692;2023-07-20T10:53:13;22.30;99.90
22734;DHT22;11534;51.994;5.692;2023-07-20T10:55:40;22.20;99.90
22734;DHT22;11534;51.994;5.692;2023-07-20T10:58:10;22.00;99.90
22734;DHT22;11534;51.994;5.692;2023-07-20T11:00:36;21.70;99.90
22734;DHT22;11534;51.994;5.692;2023-07-20T11:03:02;21.40;99.90
22734;DHT22;11534;51.994;5.692;2023-07-20T11:05:46;21.40;99.90
22734;DHT22;11534;51.994;5.692;2023-07-20T11:08:12;21.90;99.90
22734;DHT22;11534;51.994;5.692;2023-07-20T11:10:38;22.50;99.90
22734;DHT22;11534;51.994;5.692;2023-07-20T11:13:18;22.70;99.90
22734;DHT22;11534;51.994;5.692;2023-07-20T11:18:26;22.30;99.90
22734;DHT22;11534;51.994;5.692;2023-07-20T11:20:53;22.00;99.90
22734;DHT22;11534;51.994;5.692;2023-07-20T11:23:22;21.80;99.90
22734;DHT22;11534;51.994;5.692;2023-07-20T11:25:49;21.60;99.90
22734;DHT22;11534;51.994;5.692;2023-07-20T11:28:15;21.60;99.90
22734;DHT22;11534;51.994;5.692;2023-07-20T11:30:41;22.10;99.90
22734;DHT22;11534;51.994;5.692;2023-07-20T11:33:10;22.80;99.90
22734;DHT22;11534;51.994;5.692;2023-07-20T11:35:43;23.60;99.90
22734;DHT22;11534;51.994;5.692;2023-07-20T11:38:09;23.50;99.90
22734;DHT22;11534;51.994;5.692;2023-07-20T11:40:35;23.90;99.90
22734;DHT22;11534;51.994;5.692;2023-07-20T11:43:01;23.90;99.90
22734;DHT22;11534;51.994;5.692;2023-07-20T11:45:27;24.30;99.90
22734;DHT22;11534;51.994;5.692;2023-07-20T11:47:58;24.80;99.90
22734;DHT22;11534;51.994;5.692;2023-07-20T11:50:24;25.30;99.90
22734;DHT22;11534;51.994;5.692;2023-07-20T11:52:50;25.60;99.90
22734;DHT22;11534;51.994;5.692;2023-07-20T11:55:15;25.90;99.90
22734;DHT22;11534;51.994;5.692;2023-07-20T11:57:41;26.30;99.90
22734;DHT22;11534;51.994;5.692;2023-07-20T12:00:25;26.70;99.90
22734;DHT22;11534;51.994;5.692;2023-07-20T12:02:53;26.60;99.90
22734;DHT22;11534;51.994;5.692;2023-07-20T12:05:19;26.30;99.90
22734;DHT22;11534;51.994;5.692;2023-07-20T12:07:47;26.20;99.90
22734;DHT22;11534;51.994;5.692;2023-07-20T12:10:15;26.10;99.90
22734;DHT22;11534;51.994;5.692;2023-07-20T12:12:42;26.30;99.90
22734;DHT22;11534;51.994;5.692;2023-07-20T12:15:16;26.80;99.90
22734;DHT22;11534;51.994;5.692;2023-07-20T12:17:43;26.50;99.90
22734;DHT22;11534;51.994;5.692;2023-07-20T12:20:09;26.30;99.90
22734;DHT22;11534;51.994;5.692;2023-07-20T12:22:39;26.50;99.90
22734;DHT22;11534;51.994;5.692;2023-07-20T12:25:06;26.90;99.90
22734;DHT22;11534;51.994;5.692;2023-07-20T12:27:35;27.20;99.90
22734;DHT22;11534;51.994;5.692;2023-07-20T12:30:01;27.50;99.90
22734;DHT22;11534;51.994;5.692;2023-07-20T12:32:28;27.40;99.90
22734;DHT22;11534;51.994;5.692;2023-07-20T12:34:53;26.70;99.90
22734;DHT22;11534;51.994;5.692;2023-07-20T12:37:19;26.00;99.90
22734;DHT22;11534;51.994;5.692;2023-07-20T12:39:45;25.40;99.90
22734;DHT22;11534;51.994;5.692;2023-07-20T12:42:12;25.70;99.90
22734;DHT22;11534;51.994;5.692;2023-07-20T12:44:40;26.00;99.90
22734;DHT22;11534;51.994;5.692;2023-07-20T12:47:06;25.70;99.90
22734;DHT22;11534;51.994;5.692;2023-07-20T12:49:31;26.10;99.90
22734;DHT22;11534;51.994;5.692;2023-07-20T12:51:57;26.70;99.90
22734;DHT22;11534;51.994;5.692;2023-07-20T12:54:23;27.20;99.90
22734;DHT22;11534;51.994;5.692;2023-07-20T12:56:48;26.90;99.90
22734;DHT22;11534;51.994;5.692;2023-07-20T12:59:14;26.40;99.90
22734;DHT22;11534;51.994;5.692;2023-07-20T13:01:40;25.90;99.90
22734;DHT22;11534;51.994;5.692;2023-07-20T13:04:07;25.50;99.90
22734;DHT22;11534;51.994;5.692;2023-07-20T13:06:35;25.20;99.90
22734;DHT22;11534;51.994;5.692;2023-07-20T13:09:02;25.20;99.90
22734;DHT22;11534;51.994;5.692;2023-07-20T13:11:27;25.50;99.90
22734;DHT22;11534;51.994;5.692;2023-07-20T13:13:53;25.50;99.90
22734;DHT22;11534;51.994;5.692;2023-07-20T13:16:18;25.70;99.90
22734;DHT22;11534;51.994;5.692;2023-07-20T13:18:44;25.90;99.90
22734;DHT22;11534;51.994;5.692;2023-07-20T13:21:10;26.20;99.90
22734;DHT22;11534;51.994;5.692;2023-07-20T13:23:37;26.70;99.90
22734;DHT22;11534;51.994;5.692;2023-07-20T13:26:04;26.90;99.90
22734;DHT22;11534;51.994;5.692;2023-07-20T13:28:30;26.40;99.90
22734;DHT22;11534;51.994;5.692;2023-07-20T13:30:56;26.10;99.90
22734;DHT22;11534;51.994;5.692;2023-07-20T13:33:21;25.70;99.90
22734;DHT22;11534;51.994;5.692;2023-07-20T13:35:47;25.50;99.90
22734;DHT22;11534;51.994;5.692;2023-07-20T13:38:13;25.20;99.90
22734;DHT22;11534;51.994;5.692;2023-07-20T13:40:38;25.00;99.90
22734;DHT22;11534;51.994;5.692;2023-07-20T13:43:04;24.60;99.90
22734;DHT22;11534;51.994;5.692;2023-07-20T13:45:30;24.40;99.90
22734;DHT22;11534;51.994;5.692;2023-07-20T13:47:55;24.40;99.90
22734;DHT22;11534;51.994;5.692;2023-07-20T13:50:21;24.40;99.90
22734;DHT22;11534;51.994;5.692;2023-07-20T13:52:47;24.30;99.90
22734;DHT22;11534;51.994;5.692;2023-07-20T13:55:12;24.00;99.90
22734;DHT22;11534;51.994;5.692;2023-07-20T13:57:38;24.10;99.90
22734;DHT22;11534;51.994;5.692;2023-07-20T14:00:04;24.00;99.90
22734;DHT22;11534;51.994;5.692;2023-07-20T14:02:31;24.60;99.90
22734;DHT22;11534;51.994;5.692;2023-07-20T14:04:57;25.10;99.90
22734;DHT22;11534;51.994;5.692;2023-07-20T14:07:23;25.40;99.90
22734;DHT22;11534;51.994;5.692;2023-07-20T14:09:49;25.60;99.90
22734;DHT22;11534;51.994;5.692;2023-07-20T14:12:15;25.40;99.90
22734;DHT22;11534;51.994;5.692;2023-07-20T14:14:40;25.10;99.90
22734;DHT22;11534;51.994;5.692;2023-07-20T14:17:07;25.10;99.90
22734;DHT22;11534;51.994;5.692;2023-07-20T14:19:33;25.00;99.90
22734;DHT22;11534;51.994;5.692;2023-07-20T14:21:58;24.80;99.90
22734;DHT22;11534;51.994;5.692;2023-07-20T14:24:25;24.60;99.90
22734;DHT22;11534;51.994;5.692;2023-07-20T14:26:51;24.40;99.90
22734;DHT22;11534;51.994;5.692;2023-07-20T14:29:17;24.50;99.90
22734;DHT22;11534;51.994;5.692;2023-07-20T14:31:44;24.40;99.90
22734;DHT22;11534;51.994;5.692;2023-07-20T14:34:09;24.40;99.90
22734;DHT22;11534;51.994;5.692;2023-07-20T14:36:35;24.70;99.90
22734;DHT22;11534;51.994;5.692;2023-07-20T14:39:01;25.20;99.90
22734;DHT22;11534;51.994;5.692;2023-07-20T14:41:27;25.70;99.90
22734;DHT22;11534;51.994;5.692;2023-07-20T14:43:52;25.90;99.90
22734;DHT22;11534;51.994;5.692;2023-07-20T14:46:18;26.30;99.90
22734;DHT22;11534;51.994;5.692;2023-07-20T14:48:43;26.40;99.90
22734;DHT22;11534;51.994;5.692;2023-07-20T14:51:09;26.60;99.90
22734;DHT22;11534;51.994;5.692;2023-07-20T14:53:35;26.40;99.90
22734;DHT22;11534;51.994;5.692;2023-07-20T14:56:01;25.90;99.90
22734;DHT22;11534;51.994;5.692;2023-07-20T14:58:27;25.50;99.90
22734;DHT22;11534;51.994;5.692;2023-07-20T15:00:53;25.30;99.90
22734;DHT22;11534;51.994;5.692;2023-07-20T15:03:18;25.50;99.90
22734;DHT22;11534;51.994;5.692;2023-07-20T15:05:44;25.60;99.90
22734;DHT22;11534;51.994;5.692;2023-07-20T15:08:09;25.40;99.90
22734;DHT22;11534;51.994;5.692;2023-07-20T15:10:35;25.10;99.90
22734;DHT22;11534;51.994;5.692;2023-07-20T15:13:01;24.80;99.90
22734;DHT22;11534;51.994;5.692;2023-07-20T15:15:28;24.60;99.90
22734;DHT22;11534;51.994;5.692;2023-07-20T15:17:53;24.50;99.90
22734;DHT22;11534;51.994;5.692;2023-07-20T15:20:19;24.50;99.90
22734;DHT22;11534;51.994;5.692;2023-07-20T15:22:45;24.40;99.90
22734;DHT22;11534;51.994;5.692;2023-07-20T15:25:11;24.40;99.90
22734;DHT22;11534;51.994;5.692;2023-07-20T15:27:37;24.20;99.90
22734;DHT22;11534;51.994;5.692;2023-07-20T15:30:04;24.20;99.90
22734;DHT22;11534;51.994;5.692;2023-07-20T15:32:30;24.10;99.90
22734;DHT22;11534;51.994;5.692;2023-07-20T15:34:55;24.00;99.90
22734;DHT22;11534;51.994;5.692;2023-07-20T15:37:21;23.80;99.90
22734;DHT22;11534;51.994;5.692;2023-07-20T15:39:50;23.70;99.90